sensor_id;sensor_type;location;lat;lon;timestamp;pressure;altitude;pressure_sealevel;temperature;humidity
33554;BME280;19885;42.208;24.952;2023-02-13T00:01:59;101842.00;;;4.88;66.54
33554;BME280;19885;42.208;24.952;2023-02-13T00:04:24;101844.66;;;4.89;66.06
33554;BME280;19885;42.208;24.952;2023-02-13T00:06:50;101846.53;;;4.92;65.75
33554;BME280;19885;42.208;24.952;2023-02-13T00:09:15;101846.53;;;4.92;66.38
33554;BME280;19885;42.208;24.952;2023-02-13T00:11:40;101847.59;;;4.95;65.99
33554;BME280;19885;42.208;24.952;2023-02-13T00:14:06;101854.28;;;4.92;65.50
33554;BME280;19885;42.208;24.952;2023-02-13T00:16:32;101853.69;;;4.96;65.51
33554;BME280;19885;42.208;24.952;2023-02-13T00:18:57;101857.06;;;4.95;65.52
33554;BME280;19885;42.208;24.952;2023-02-13T00:21:23;101862.03;;;4.92;65.43
33554;BME280;19885;42.208;24.952;2023-02-13T00:23:48;101843.63;;;4.73;65.45
33554;BME280;19885;42.208;24.952;2023-02-13T00:26:15;101864.44;;;4.89;65.22
33554;BME280;19885;42.208;24.952;2023-02-13T00:28:41;101871.19;;;4.87;65.26
33554;BME280;19885;42.208;24.952;2023-02-13T00:31:09;101869.50;;;4.87;65.25
33554;BME280;19885;42.208;24.952;2023-02-13T00:33:35;101859.97;;;4.86;65.38
33554;BME280;19885;42.208;24.952;2023-02-13T00:36:06;101860.94;;;4.88;65.57
33554;BME280;19885;42.208;24.952;2023-02-13T00:38:32;101865.84;;;4.84;65.87
33554;BME280;19885;42.208;24.952;2023-02-13T00:40:57;101859.88;;;4.85;65.69
33554;BME280;19885;42.208;24.952;2023-02-13T00:43:23;101855.94;;;4.77;65.15
33554;BME280;19885;42.208;24.952;2023-02-13T00:45:48;101777.22;;;4.43;65.23
33554;BME280;19885;42.208;24.952;2023-02-13T00:48:13;101858.28;;;4.87;65.29
33554;BME280;19885;42.208;24.952;2023-02-13T00:50:39;101866.72;;;4.84;64.82
33554;BME280;19885;42.208;24.952;2023-02-13T00:53:04;101863.09;;;4.81;65.11
33554;BME280;19885;42.208;24.952;2023-02-13T00:55:30;101848.63;;;4.70;66.02
33554;BME280;19885;42.208;24.952;2023-02-13T00:57:55;101848.63;;;4.70;66.17
33554;BME280;19885;42.208;24.952;2023-02-13T01:00:23;101846.50;;;4.77;65.77
33554;BME280;19885;42.208;24.952;2023-02-13T01:02:48;101839.00;;;4.67;65.28
33554;BME280;19885;42.208;24.952;2023-02-13T01:05:16;101867.34;;;4.80;65.25
33554;BME280;19885;42.208;24.952;2023-02-13T01:07:42;101859.69;;;4.82;65.36
33554;BME280;19885;42.208;24.952;2023-02-13T01:10:07;101865.53;;;4.79;64.93
33554;BME280;19885;42.208;24.952;2023-02-13T01:12:33;101868.88;;;4.77;65.44
33554;BME280;19885;42.208;24.952;2023-02-13T01:14:58;101865.19;;;4.73;65.11
33554;BME280;19885;42.208;24.952;2023-02-13T01:17:24;101774.81;;;4.18;65.70
33554;BME280;19885;42.208;24.952;2023-02-13T01:19:49;101863.72;;;4.64;65.90
33554;BME280;19885;42.208;24.952;2023-02-13T01:22:15;101868.69;;;4.61;65.80
33554;BME280;19885;42.208;24.952;2023-02-13T01:24:40;101864.66;;;4.51;66.17
33554;BME280;19885;42.208;24.952;2023-02-13T01:27:06;101852.22;;;4.46;66.10
33554;BME280;19885;42.208;24.952;2023-02-13T01:29:31;101861.28;;;4.39;66.31
33554;BME280;19885;42.208;24.952;2023-02-13T01:31:57;101848.50;;;4.27;66.36
33554;BME280;19885;42.208;24.952;2023-02-13T01:34:23;101872.00;;;4.32;66.31
33554;BME280;19885;42.208;24.952;2023-02-13T01:36:48;101866.94;;;4.20;67.52
33554;BME280;19885;42.208;24.952;2023-02-13T01:39:14;101867.16;;;4.10;67.04
33554;BME280;19885;42.208;24.952;2023-02-13T01:41:39;101873.09;;;4.09;66.69
33554;BME280;19885;42.208;24.952;2023-02-13T01:47:09;101869.84;;;3.99;66.90
33554;BME280;19885;42.208;24.952;2023-02-13T01:49:36;101859.22;;;3.94;67.27
33554;BME280;19885;42.208;24.952;2023-02-13T01:52:03;101863.78;;;3.85;66.94
33554;BME280;19885;42.208;24.952;2023-02-13T01:54:31;101862.88;;;3.72;67.38
33554;BME280;19885;42.208;24.952;2023-02-13T01:57:05;101850.97;;;3.60;67.50
33554;BME280;19885;42.208;24.952;2023-02-13T01:59:36;101873.66;;;3.66;67.82
33554;BME280;19885;42.208;24.952;2023-02-13T02:02:05;101873.88;;;3.56;68.35
33554;BME280;19885;42.208;24.952;2023-02-13T02:04:32;101871.88;;;3.52;68.01
33554;BME280;19885;42.208;24.952;2023-02-13T02:07:25;101873.25;;;3.47;68.69
33554;BME280;19885;42.208;24.952;2023-02-13T02:09:54;101869.84;;;3.35;68.62
33554;BME280;19885;42.208;24.952;2023-02-13T02:12:24;101871.16;;;3.17;69.04
33554;BME280;19885;42.208;24.952;2023-02-13T02:14:52;101876.16;;;3.02;69.46
33554;BME280;19885;42.208;24.952;2023-02-13T02:17:19;101893.31;;;3.02;69.41
33554;BME280;19885;42.208;24.952;2023-02-13T02:22:51;101884.53;;;2.75;69.68
33554;BME280;19885;42.208;24.952;2023-02-13T02:48:02;101924.41;;;1.76;73.50
33554;BME280;19885;42.208;24.952;2023-02-13T02:51:01;101922.41;;;1.72;73.18
33554;BME280;19885;42.208;24.952;2023-02-13T02:53:38;101856.44;;;1.37;73.59
33554;BME280;19885;42.208;24.952;2023-02-13T02:56:30;101927.31;;;1.69;73.21
33554;BME280;19885;42.208;24.952;2023-02-13T02:59:04;101920.81;;;1.62;73.62
33554;BME280;19885;42.208;24.952;2023-02-13T03:01:52;101922.47;;;1.62;73.66
33554;BME280;19885;42.208;24.952;2023-02-13T03:04:47;101928.63;;;1.64;74.05
33554;BME280;19885;42.208;24.952;2023-02-13T03:07:32;101923.47;;;1.64;74.30
33554;BME280;19885;42.208;24.952;2023-02-13T03:10:24;101927.09;;;1.66;73.60
33554;BME280;19885;42.208;24.952;2023-02-13T03:13:14;101924.59;;;1.56;73.32
33554;BME280;19885;42.208;24.952;2023-02-13T03:15:52;101936.44;;;1.54;74.45
33554;BME280;19885;42.208;24.952;2023-02-13T03:18:40;101937.09;;;1.51;74.32
33554;BME280;19885;42.208;24.952;2023-02-13T03:27:07;101937.72;;;1.37;75.06
33554;BME280;19885;42.208;24.952;2023-02-13T03:29:47;101928.25;;;1.36;75.30
33554;BME280;19885;42.208;24.952;2023-02-13T03:41:13;101844.09;;;0.89;75.82
33554;BME280;19885;42.208;24.952;2023-02-13T03:46:31;101934.84;;;1.44;75.45
33554;BME280;19885;42.208;24.952;2023-02-13T03:48:58;101946.66;;;1.42;74.41
33554;BME280;19885;42.208;24.952;2023-02-13T03:52:05;101927.47;;;0.94;74.31
33554;BME280;19885;42.208;24.952;2023-02-13T03:54:51;101953.69;;;1.11;75.11
33554;BME280;19885;42.208;24.952;2023-02-13T03:57:40;101860.88;;;0.30;75.79
33554;BME280;19885;42.208;24.952;2023-02-13T04:00:28;101960.41;;;0.46;77.18
33554;BME280;19885;42.208;24.952;2023-02-13T04:03:08;101956.59;;;0.41;77.05
33554;BME280;19885;42.208;24.952;2023-02-13T04:05:39;101893.06;;;0.27;76.93
33554;BME280;19885;42.208;24.952;2023-02-13T04:08:05;101964.97;;;0.60;77.32
33554;BME280;19885;42.208;24.952;2023-02-13T04:10:33;101968.19;;;0.57;77.78
33554;BME280;19885;42.208;24.952;2023-02-13T04:13:23;101971.84;;;0.71;77.23
33554;BME280;19885;42.208;24.952;2023-02-13T04:18:30;101975.13;;;0.90;77.00
33554;BME280;19885;42.208;24.952;2023-02-13T04:21:04;101953.56;;;0.88;77.45
33554;BME280;19885;42.208;24.952;2023-02-13T04:23:30;101941.16;;;0.83;77.13
33554;BME280;19885;42.208;24.952;2023-02-13T04:25:56;101962.28;;;0.90;77.26
33554;BME280;19885;42.208;24.952;2023-02-13T04:28:24;101966.13;;;0.95;76.16
33554;BME280;19885;42.208;24.952;2023-02-13T04:30:49;101971.25;;;0.95;76.52
33554;BME280;19885;42.208;24.952;2023-02-13T04:33:15;101955.13;;;0.86;76.42
33554;BME280;19885;42.208;24.952;2023-02-13T04:35:41;101977.69;;;0.90;76.22
33554;BME280;19885;42.208;24.952;2023-02-13T04:38:06;101972.59;;;0.80;76.79
33554;BME280;19885;42.208;24.952;2023-02-13T04:40:32;101970.81;;;0.79;77.56
33554;BME280;19885;42.208;24.952;2023-02-13T04:42:57;101960.00;;;0.83;76.52
33554;BME280;19885;42.208;24.952;2023-02-13T04:45:23;101973.84;;;0.85;77.32
33554;BME280;19885;42.208;24.952;2023-02-13T04:47:51;101966.69;;;0.81;77.24
33554;BME280;19885;42.208;24.952;2023-02-13T04:50:17;101947.00;;;0.70;76.97
33554;BME280;19885;42.208;24.952;2023-02-13T04:52:43;101973.38;;;0.79;77.30
33554;BME280;19885;42.208;24.952;2023-02-13T04:55:09;101968.00;;;0.76;77.11
33554;BME280;19885;42.208;24.952;2023-02-13T04:57:34;101949.56;;;0.70;76.92
33554;BME280;19885;42.208;24.952;2023-02-13T05:00:03;101963.88;;;0.78;76.45
33554;BME280;19885;42.208;24.952;2023-02-13T05:02:33;101954.59;;;0.58;77.08
33554;BME280;19885;42.208;24.952;2023-02-13T05:04:58;101934.69;;;0.34;77.30
33554;BME280;19885;42.208;24.952;2023-02-13T05:07:24;101959.53;;;0.45;76.96
33554;BME280;19885;42.208;24.952;2023-02-13T05:09:50;101981.81;;;0.46;77.51
33554;BME280;19885;42.208;24.952;2023-02-13T05:12:15;101959.50;;;0.14;78.10
33554;BME280;19885;42.208;24.952;2023-02-13T05:14:41;101979.97;;;0.24;78.35
33554;BME280;19885;42.208;24.952;2023-02-13T05:17:06;101980.75;;;0.23;78.10
33554;BME280;19885;42.208;24.952;2023-02-13T05:19:33;101971.53;;;0.15;78.54
33554;BME280;19885;42.208;24.952;2023-02-13T05:21:58;101992.13;;;0.26;78.19
33554;BME280;19885;42.208;24.952;2023-02-13T05:24:42;101987.66;;;0.24;78.15
33554;BME280;19885;42.208;24.952;2023-02-13T05:27:08;101981.78;;;0.15;78.04
33554;BME280;19885;42.208;24.952;2023-02-13T05:29:33;101995.22;;;0.22;78.17
33554;BME280;19885;42.208;24.952;2023-02-13T05:32:00;101991.66;;;0.10;78.74
33554;BME280;19885;42.208;24.952;2023-02-13T05:34:29;101987.69;;;0.04;78.45
33554;BME280;19885;42.208;24.952;2023-02-13T05:36:54;101999.75;;;0.05;78.54
33554;BME280;19885;42.208;24.952;2023-02-13T05:39:20;102014.09;;;-0.08;78.72
33554;BME280;19885;42.208;24.952;2023-02-13T05:41:46;101991.81;;;-0.19;79.04
33554;BME280;19885;42.208;24.952;2023-02-13T05:44:12;101981.31;;;-0.22;79.20
33554;BME280;19885;42.208;24.952;2023-02-13T05:46:39;102006.16;;;-0.01;78.89
33554;BME280;19885;42.208;24.952;2023-02-13T05:49:06;102006.75;;;0.07;78.73
33554;BME280;19885;42.208;24.952;2023-02-13T05:51:32;102007.13;;;0.22;78.79
33554;BME280;19885;42.208;24.952;2023-02-13T05:53:57;101998.69;;;0.23;78.32
33554;BME280;19885;42.208;24.952;2023-02-13T05:56:23;102024.41;;;0.34;78.14
33554;BME280;19885;42.208;24.952;2023-02-13T05:58:53;102023.28;;;0.41;78.25
33554;BME280;19885;42.208;24.952;2023-02-13T06:01:19;102020.13;;;0.55;77.74
33554;BME280;19885;42.208;24.952;2023-02-13T06:03:44;102004.25;;;0.59;77.22
33554;BME280;19885;42.208;24.952;2023-02-13T06:06:10;102006.38;;;0.64;77.37
33554;BME280;19885;42.208;24.952;2023-02-13T06:08:35;102005.53;;;0.86;77.14
33554;BME280;19885;42.208;24.952;2023-02-13T06:11:01;101956.91;;;0.87;75.85
33554;BME280;19885;42.208;24.952;2023-02-13T06:13:27;102021.25;;;1.43;76.00
33554;BME280;19885;42.208;24.952;2023-02-13T06:15:53;101957.44;;;1.05;75.38
33554;BME280;19885;42.208;24.952;2023-02-13T06:18:18;102040.34;;;1.69;74.52
33554;BME280;19885;42.208;24.952;2023-02-13T06:20:44;102023.16;;;1.68;73.62
33554;BME280;19885;42.208;24.952;2023-02-13T06:23:10;102026.94;;;1.61;75.00
33554;BME280;19885;42.208;24.952;2023-02-13T06:25:36;102040.16;;;1.66;74.49
33554;BME280;19885;42.208;24.952;2023-02-13T06:28:02;102044.56;;;1.57;74.77
33554;BME280;19885;42.208;24.952;2023-02-13T06:30:28;102035.00;;;1.22;76.15
33554;BME280;19885;42.208;24.952;2023-02-13T06:32:53;102038.06;;;1.28;76.51
33554;BME280;19885;42.208;24.952;2023-02-13T06:35:19;102026.69;;;1.36;77.15
33554;BME280;19885;42.208;24.952;2023-02-13T06:37:45;102031.72;;;1.35;77.30
33554;BME280;19885;42.208;24.952;2023-02-13T06:40:12;102028.66;;;1.51;77.27
33554;BME280;19885;42.208;24.952;2023-02-13T06:42:38;102002.06;;;1.50;76.96
33554;BME280;19885;42.208;24.952;2023-02-13T06:45:04;102009.25;;;1.32;77.19
33554;BME280;19885;42.208;24.952;2023-02-13T06:47:30;102026.59;;;1.35;78.22
33554;BME280;19885;42.208;24.952;2023-02-13T06:49:56;102021.56;;;1.36;78.29
33554;BME280;19885;42.208;24.952;2023-02-13T06:52:21;102014.56;;;1.45;77.75
33554;BME280;19885;42.208;24.952;2023-02-13T06:54:46;102029.63;;;1.63;77.42
33554;BME280;19885;42.208;24.952;2023-02-13T06:57:12;102016.22;;;1.67;77.91
33554;BME280;19885;42.208;24.952;2023-02-13T06:59:37;102028.47;;;1.59;78.52
33554;BME280;19885;42.208;24.952;2023-02-13T07:02:03;102008.59;;;1.57;78.99
33554;BME280;19885;42.208;24.952;2023-02-13T07:04:28;102026.97;;;1.73;78.66
33554;BME280;19885;42.208;24.952;2023-02-13T07:06:54;102010.00;;;1.75;78.68
33554;BME280;19885;42.208;24.952;2023-02-13T07:09:21;102029.56;;;2.29;77.07
33554;BME280;19885;42.208;24.952;2023-02-13T07:11:47;102022.75;;;2.41;76.80
33554;BME280;19885;42.208;24.952;2023-02-13T07:14:12;102030.69;;;2.44;76.64
33554;BME280;19885;42.208;24.952;2023-02-13T07:16:38;102020.97;;;2.63;76.95
33554;BME280;19885;42.208;24.952;2023-02-13T07:19:03;102031.13;;;2.97;75.36
33554;BME280;19885;42.208;24.952;2023-02-13T07:21:28;102031.09;;;3.56;73.69
33554;BME280;19885;42.208;24.952;2023-02-13T07:23:54;102018.09;;;4.17;71.11
33554;BME280;19885;42.208;24.952;2023-02-13T07:26:19;102023.97;;;4.80;68.23
33554;BME280;19885;42.208;24.952;2023-02-13T07:28:45;102022.41;;;5.36;66.73
33554;BME280;19885;42.208;24.952;2023-02-13T07:31:10;102018.59;;;5.71;64.62
33554;BME280;19885;42.208;24.952;2023-02-13T07:33:36;102023.16;;;6.18;62.31
33554;BME280;19885;42.208;24.952;2023-02-13T07:36:02;102022.69;;;5.96;62.67
33554;BME280;19885;42.208;24.952;2023-02-13T07:38:29;102026.19;;;6.55;62.41
33554;BME280;19885;42.208;24.952;2023-02-13T07:40:58;102014.41;;;7.21;60.01
33554;BME280;19885;42.208;24.952;2023-02-13T07:43:24;102016.63;;;7.46;59.27
33554;BME280;19885;42.208;24.952;2023-02-13T07:45:50;102010.28;;;8.05;57.31
33554;BME280;19885;42.208;24.952;2023-02-13T07:48:21;102005.06;;;8.21;55.09
33554;BME280;19885;42.208;24.952;2023-02-13T07:50:46;102010.47;;;7.92;55.79
33554;BME280;19885;42.208;24.952;2023-02-13T07:53:12;101937.59;;;7.55;58.00
33554;BME280;19885;42.208;24.952;2023-02-13T07:55:37;102007.59;;;7.70;57.41
33554;BME280;19885;42.208;24.952;2023-02-13T07:58:03;101942.69;;;7.05;58.24
33554;BME280;19885;42.208;24.952;2023-02-13T08:00:29;102003.81;;;7.97;56.30
33554;BME280;19885;42.208;24.952;2023-02-13T08:02:54;102002.97;;;8.14;56.20
33554;BME280;19885;42.208;24.952;2023-02-13T08:05:19;102010.56;;;7.77;57.82
33554;BME280;19885;42.208;24.952;2023-02-13T08:07:45;102013.53;;;8.17;57.32
33554;BME280;19885;42.208;24.952;2023-02-13T08:10:12;102004.09;;;9.06;55.12
33554;BME280;19885;42.208;24.952;2023-02-13T08:12:56;102016.63;;;8.26;54.85
33554;BME280;19885;42.208;24.952;2023-02-13T08:15:22;102010.19;;;8.36;56.30
33554;BME280;19885;42.208;24.952;2023-02-13T08:17:48;102015.38;;;8.89;54.83
33554;BME280;19885;42.208;24.952;2023-02-13T08:20:13;102009.38;;;9.82;52.49
33554;BME280;19885;42.208;24.952;2023-02-13T08:22:39;102011.66;;;9.19;51.77
33554;BME280;19885;42.208;24.952;2023-02-13T08:25:05;101994.91;;;8.59;53.75
33554;BME280;19885;42.208;24.952;2023-02-13T08:27:31;101995.75;;;9.13;53.52
33554;BME280;19885;42.208;24.952;2023-02-13T08:29:58;101937.97;;;9.01;50.68
33554;BME280;19885;42.208;24.952;2023-02-13T08:32:24;101976.59;;;9.30;51.15
33554;BME280;19885;42.208;24.952;2023-02-13T08:34:52;101999.44;;;9.36;50.77
33554;BME280;19885;42.208;24.952;2023-02-13T08:37:17;101995.19;;;9.76;52.02
33554;BME280;19885;42.208;24.952;2023-02-13T08:39:43;101989.00;;;10.12;50.25
33554;BME280;19885;42.208;24.952;2023-02-13T08:42:09;101989.44;;;10.23;49.78
33554;BME280;19885;42.208;24.952;2023-02-13T08:44:34;101994.47;;;10.39;49.79
33554;BME280;19885;42.208;24.952;2023-02-13T08:47:01;101978.84;;;10.39;49.90
33554;BME280;19885;42.208;24.952;2023-02-13T08:49:29;101983.94;;;10.36;48.17
33554;BME280;19885;42.208;24.952;2023-02-13T08:51:55;101896.22;;;9.55;50.26
33554;BME280;19885;42.208;24.952;2023-02-13T08:54:20;101986.88;;;10.03;52.15
33554;BME280;19885;42.208;24.952;2023-02-13T08:56:45;101986.59;;;10.37;50.33
33554;BME280;19885;42.208;24.952;2023-02-13T08:59:11;101987.88;;;10.67;48.12
33554;BME280;19885;42.208;24.952;2023-02-13T09:01:36;101990.72;;;10.73;48.40
33554;BME280;19885;42.208;24.952;2023-02-13T09:04:02;101960.88;;;10.45;49.20
33554;BME280;19885;42.208;24.952;2023-02-13T09:06:27;101978.03;;;10.83;48.08
33554;BME280;19885;42.208;24.952;2023-02-13T09:08:53;101977.56;;;10.93;47.76
33554;BME280;19885;42.208;24.952;2023-02-13T09:11:19;101962.56;;;10.87;48.19
33554;BME280;19885;42.208;24.952;2023-02-13T09:13:48;101965.03;;;10.84;48.66
33554;BME280;19885;42.208;24.952;2023-02-13T09:16:13;101962.63;;;10.89;48.71
33554;BME280;19885;42.208;24.952;2023-02-13T09:18:39;101952.09;;;11.31;47.83
33554;BME280;19885;42.208;24.952;2023-02-13T09:21:07;101946.19;;;11.35;46.54
33554;BME280;19885;42.208;24.952;2023-02-13T09:23:35;101940.97;;;11.35;46.69
33554;BME280;19885;42.208;24.952;2023-02-13T09:26:03;101949.50;;;11.09;47.37
33554;BME280;19885;42.208;24.952;2023-02-13T09:28:30;101925.91;;;11.06;49.21
33554;BME280;19885;42.208;24.952;2023-02-13T09:30:56;101943.28;;;11.28;47.74
33554;BME280;19885;42.208;24.952;2023-02-13T09:33:22;101944.50;;;11.37;48.16
33554;BME280;19885;42.208;24.952;2023-02-13T09:35:48;101944.66;;;11.66;47.08
33554;BME280;19885;42.208;24.952;2023-02-13T09:38:13;101933.28;;;11.64;47.12
33554;BME280;19885;42.208;24.952;2023-02-13T09:40:52;101880.31;;;11.42;45.27
33554;BME280;19885;42.208;24.952;2023-02-13T09:43:27;101910.84;;;11.69;45.53
33554;BME280;19885;42.208;24.952;2023-02-13T09:45:58;101927.38;;;11.45;46.62
33554;BME280;19885;42.208;24.952;2023-02-13T09:48:31;101906.81;;;11.55;47.80
33554;BME280;19885;42.208;24.952;2023-02-13T09:50:58;101914.38;;;11.94;45.77
33554;BME280;19885;42.208;24.952;2023-02-13T09:53:26;101910.25;;;12.01;46.15
33554;BME280;19885;42.208;24.952;2023-02-13T09:56:09;101904.91;;;11.98;46.07
33554;BME280;19885;42.208;24.952;2023-02-13T09:58:43;101882.13;;;11.69;46.30
33554;BME280;19885;42.208;24.952;2023-02-13T10:06:46;101892.16;;;11.82;46.35
33554;BME280;19885;42.208;24.952;2023-02-13T10:15:01;101876.44;;;12.32;44.09
33554;BME280;19885;42.208;24.952;2023-02-13T10:17:38;101864.69;;;12.46;45.35
33554;BME280;19885;42.208;24.952;2023-02-13T10:20:20;101860.13;;;12.12;45.46
33554;BME280;19885;42.208;24.952;2023-02-13T10:22:51;101859.56;;;11.96;45.05
33554;BME280;19885;42.208;24.952;2023-02-13T10:25:28;101809.97;;;11.47;44.82
33554;BME280;19885;42.208;24.952;2023-02-13T10:28:02;101843.25;;;11.78;46.59
33554;BME280;19885;42.208;24.952;2023-02-13T10:30:35;101825.63;;;12.24;45.46
33554;BME280;19885;42.208;24.952;2023-02-13T10:38:17;101828.25;;;12.80;43.90
33554;BME280;19885;42.208;24.952;2023-02-13T10:41:24;101821.88;;;12.72;44.36
33554;BME280;19885;42.208;24.952;2023-02-13T10:55:17;101801.22;;;13.11;44.96
33554;BME280;19885;42.208;24.952;2023-02-13T11:00:26;101797.78;;;13.12;43.25
33554;BME280;19885;42.208;24.952;2023-02-13T11:02:57;101786.00;;;13.29;42.34
33554;BME280;19885;42.208;24.952;2023-02-13T11:05:28;101784.31;;;13.31;42.36
33554;BME280;19885;42.208;24.952;2023-02-13T11:07:55;101772.66;;;13.51;41.06
33554;BME280;19885;42.208;24.952;2023-02-13T11:10:23;101770.66;;;13.43;42.24
33554;BME280;19885;42.208;24.952;2023-02-13T11:12:50;101751.56;;;13.13;42.22
33554;BME280;19885;42.208;24.952;2023-02-13T11:15:30;101766.09;;;13.03;43.16
33554;BME280;19885;42.208;24.952;2023-02-13T11:17:59;101751.28;;;13.36;42.76
33554;BME280;19885;42.208;24.952;2023-02-13T11:20:32;101761.78;;;13.72;42.30
33554;BME280;19885;42.208;24.952;2023-02-13T11:23:16;101752.28;;;13.40;41.36
33554;BME280;19885;42.208;24.952;2023-02-13T11:28:36;101747.59;;;13.63;40.61
33554;BME280;19885;42.208;24.952;2023-02-13T11:33:47;101735.97;;;13.17;41.34
33554;BME280;19885;42.208;24.952;2023-02-13T11:36:16;101723.06;;;12.94;42.58
33554;BME280;19885;42.208;24.952;2023-02-13T11:38:42;101725.69;;;12.62;42.10
33554;BME280;19885;42.208;24.952;2023-02-13T11:41:13;101711.06;;;13.02;42.31
33554;BME280;19885;42.208;24.952;2023-02-13T11:43:49;101708.13;;;13.21;41.95
33554;BME280;19885;42.208;24.952;2023-02-13T11:46:22;101697.63;;;13.55;40.49
33554;BME280;19885;42.208;24.952;2023-02-13T11:49:03;101681.69;;;13.46;40.31
33554;BME280;19885;42.208;24.952;2023-02-13T11:51:44;101672.13;;;13.48;39.13
33554;BME280;19885;42.208;24.952;2023-02-13T11:57:08;101677.00;;;13.33;40.12
33554;BME280;19885;42.208;24.952;2023-02-13T11:59:42;101684.66;;;13.61;40.19
33554;BME280;19885;42.208;24.952;2023-02-13T12:04:46;101676.53;;;13.86;39.26
33554;BME280;19885;42.208;24.952;2023-02-13T12:07:31;101668.84;;;13.56;40.10
33554;BME280;19885;42.208;24.952;2023-02-13T12:10:10;101660.03;;;13.53;40.27
33554;BME280;19885;42.208;24.952;2023-02-13T12:12:48;101651.97;;;13.44;39.18
33554;BME280;19885;42.208;24.952;2023-02-13T12:15:26;101652.41;;;13.62;39.38
33554;BME280;19885;42.208;24.952;2023-02-13T12:21:21;101652.00;;;13.45;39.18
33554;BME280;19885;42.208;24.952;2023-02-13T12:23:47;101654.09;;;13.60;38.50
33554;BME280;19885;42.208;24.952;2023-02-13T12:26:31;101650.72;;;13.66;38.24
33554;BME280;19885;42.208;24.952;2023-02-13T12:37:56;101647.66;;;13.47;38.62
33554;BME280;19885;42.208;24.952;2023-02-13T12:48:06;101562.41;;;12.88;39.24
33554;BME280;19885;42.208;24.952;2023-02-13T12:53:42;101615.78;;;13.28;39.81
33554;BME280;19885;42.208;24.952;2023-02-13T12:56:37;101621.31;;;13.40;39.91
33554;BME280;19885;42.208;24.952;2023-02-13T12:59:04;101621.91;;;13.28;38.94
33554;BME280;19885;42.208;24.952;2023-02-13T13:02:05;101628.41;;;12.77;40.08
33554;BME280;19885;42.208;24.952;2023-02-13T13:07:39;101613.56;;;13.09;39.76
33554;BME280;19885;42.208;24.952;2023-02-13T13:10:20;101613.63;;;13.12;39.28
33554;BME280;19885;42.208;24.952;2023-02-13T13:16:09;101523.31;;;12.59;38.28
33554;BME280;19885;42.208;24.952;2023-02-13T13:18:53;101592.13;;;12.90;39.25
33554;BME280;19885;42.208;24.952;2023-02-13T13:21:24;101575.78;;;12.34;39.30
33554;BME280;19885;42.208;24.952;2023-02-13T13:23:57;101540.25;;;12.07;40.54
33554;BME280;19885;42.208;24.952;2023-02-13T13:28:58;101579.81;;;12.86;40.03
33554;BME280;19885;42.208;24.952;2023-02-13T13:31:26;101571.19;;;12.90;39.21
33554;BME280;19885;42.208;24.952;2023-02-13T13:33:55;101584.00;;;12.78;40.62
33554;BME280;19885;42.208;24.952;2023-02-13T13:36:45;101585.13;;;12.89;38.99
33554;BME280;19885;42.208;24.952;2023-02-13T13:42:36;101515.09;;;12.45;38.06
33554;BME280;19885;42.208;24.952;2023-02-13T13:47:51;101576.44;;;12.25;38.06
33554;BME280;19885;42.208;24.952;2023-02-13T13:50:23;101569.44;;;12.55;39.58
33554;BME280;19885;42.208;24.952;2023-02-13T13:53:08;101562.88;;;12.72;38.82
33554;BME280;19885;42.208;24.952;2023-02-13T14:03:47;101555.19;;;12.13;39.80
33554;BME280;19885;42.208;24.952;2023-02-13T14:06:15;101551.22;;;11.96;38.34
33554;BME280;19885;42.208;24.952;2023-02-13T14:11:42;101512.34;;;11.77;39.26
33554;BME280;19885;42.208;24.952;2023-02-13T14:16:53;101556.56;;;11.99;39.36
33554;BME280;19885;42.208;24.952;2023-02-13T14:19:37;101553.69;;;12.21;38.71
33554;BME280;19885;42.208;24.952;2023-02-13T14:24:55;101544.13;;;12.22;38.64
33554;BME280;19885;42.208;24.952;2023-02-13T14:27:30;101543.06;;;12.15;38.14
33554;BME280;19885;42.208;24.952;2023-02-13T14:29:56;101476.50;;;11.41;37.95
33554;BME280;19885;42.208;24.952;2023-02-13T14:35:05;101535.59;;;11.68;39.59
33554;BME280;19885;42.208;24.952;2023-02-13T14:37:56;101541.00;;;11.45;39.98
33554;BME280;19885;42.208;24.952;2023-02-13T14:40:28;101487.06;;;11.46;40.45
33554;BME280;19885;42.208;24.952;2023-02-13T14:43:51;101536.56;;;11.70;39.76
33554;BME280;19885;42.208;24.952;2023-02-13T14:51:21;101534.56;;;11.34;40.64
33554;BME280;19885;42.208;24.952;2023-02-13T14:54:03;101473.81;;;11.10;39.71
33554;BME280;19885;42.208;24.952;2023-02-13T14:56:30;101532.34;;;11.46;40.11
33554;BME280;19885;42.208;24.952;2023-02-13T15:01:39;101523.16;;;11.31;40.39
33554;BME280;19885;42.208;24.952;2023-02-13T15:04:13;101525.06;;;11.36;40.91
33554;BME280;19885;42.208;24.952;2023-02-13T15:06:43;101519.94;;;11.39;41.05
33554;BME280;19885;42.208;24.952;2023-02-13T15:11:48;101510.13;;;11.04;40.95
33554;BME280;19885;42.208;24.952;2023-02-13T15:14:22;101522.97;;;11.25;41.04
33554;BME280;19885;42.208;24.952;2023-02-13T15:17:06;101515.75;;;11.16;40.92
33554;BME280;19885;42.208;24.952;2023-02-13T15:19:35;101517.25;;;11.08;40.62
33554;BME280;19885;42.208;24.952;2023-02-13T15:22:03;101515.34;;;11.04;41.77
33554;BME280;19885;42.208;24.952;2023-02-13T15:24:36;101513.63;;;11.05;41.15
33554;BME280;19885;42.208;24.952;2023-02-13T15:27:05;101514.59;;;10.80;41.21
33554;BME280;19885;42.208;24.952;2023-02-13T15:29:32;101517.53;;;10.64;42.28
33554;BME280;19885;42.208;24.952;2023-02-13T15:31:58;101499.31;;;10.65;42.34
33554;BME280;19885;42.208;24.952;2023-02-13T15:34:31;101502.28;;;10.76;41.67
33554;BME280;19885;42.208;24.952;2023-02-13T15:37:00;101507.66;;;10.54;42.33
33554;BME280;19885;42.208;24.952;2023-02-13T15:39:29;101504.59;;;10.40;42.91